sensor_id;sensor_type;location;lat;lon;timestamp;pressure;altitude;pressure_sealevel;temperature;humidity
12763;BME280;6445;52.490;13.378;2023-01-13T00:01:18;-12695.97;;;-146.10;100.00
12763;BME280;6445;52.490;13.378;2023-01-13T00:03:44;-12695.97;;;-146.10;100.00
12763;BME280;6445;52.490;13.378;2023-01-13T00:06:13;-12695.97;;;-146.10;100.00
12763;BME280;6445;52.490;13.378;2023-01-13T00:08:38;-12695.97;;;-146.10;100.00
12763;BME280;6445;52.490;13.378;2023-01-13T00:11:04;-12695.97;;;-146.10;100.00
12763;BME280;6445;52.490;13.378;2023-01-13T00:13:29;-12695.97;;;-146.10;100.00
12763;BME280;6445;52.490;13.378;2023-01-13T00:16:05;-12695.97;;;-146.10;100.00
12763;BME280;6445;52.490;13.378;2023-01-13T00:18:31;-12695.97;;;-146.10;100.00
12763;BME280;6445;52.490;13.378;2023-01-13T00:21:20;-12695.97;;;-146.10;100.00
12763;BME280;6445;52.490;13.378;2023-01-13T00:23:47;-12695.97;;;-146.10;100.00
12763;BME280;6445;52.490;13.378;2023-01-13T00:26:15;-12695.97;;;-146.10;100.00
12763;BME280;6445;52.490;13.378;2023-01-13T00:28:40;-12695.97;;;-146.10;100.00
12763;BME280;6445;52.490;13.378;2023-01-13T00:31:07;-12695.97;;;-146.10;100.00
12763;BME280;6445;52.490;13.378;2023-01-13T00:33:34;-12695.97;;;-146.10;100.00
12763;BME280;6445;52.490;13.378;2023-01-13T00:36:00;-12695.97;;;-146.10;100.00
12763;BME280;6445;52.490;13.378;2023-01-13T00:38:27;-12695.97;;;-146.10;100.00
12763;BME280;6445;52.490;13.378;2023-01-13T00:43:21;-12695.97;;;-146.10;100.00
12763;BME280;6445;52.490;13.378;2023-01-13T00:45:46;-12695.97;;;-146.10;100.00
12763;BME280;6445;52.490;13.378;2023-01-13T00:48:11;-12695.97;;;-146.10;100.00
12763;BME280;6445;52.490;13.378;2023-01-13T00:50:37;-12695.97;;;-146.10;100.00
12763;BME280;6445;52.490;13.378;2023-01-13T00:53:02;-12695.97;;;-146.10;100.00
12763;BME280;6445;52.490;13.378;2023-01-13T00:55:30;-12695.97;;;-146.10;100.00
12763;BME280;6445;52.490;13.378;2023-01-13T00:57:56;-12695.97;;;-146.10;100.00
12763;BME280;6445;52.490;13.378;2023-01-13T01:00:27;-12695.97;;;-146.10;100.00
12763;BME280;6445;52.490;13.378;2023-01-13T01:02:52;-12695.97;;;-146.10;100.00
12763;BME280;6445;52.490;13.378;2023-01-13T01:05:18;-12695.97;;;-146.10;100.00
12763;BME280;6445;52.490;13.378;2023-01-13T01:07:43;-12695.97;;;-146.10;100.00
12763;BME280;6445;52.490;13.378;2023-01-13T01:10:08;-12695.97;;;-146.10;100.00
12763;BME280;6445;52.490;13.378;2023-01-13T01:12:34;-12695.97;;;-146.10;100.00
12763;BME280;6445;52.490;13.378;2023-01-13T01:14:59;-12695.97;;;-146.10;100.00
12763;BME280;6445;52.490;13.378;2023-01-13T01:17:24;-12695.97;;;-146.10;100.00
12763;BME280;6445;52.490;13.378;2023-01-13T01:19:50;-12695.97;;;-146.10;100.00
12763;BME280;6445;52.490;13.378;2023-01-13T01:22:15;-12695.97;;;-146.10;100.00
12763;BME280;6445;52.490;13.378;2023-01-13T01:24:40;-12695.97;;;-146.10;100.00
12763;BME280;6445;52.490;13.378;2023-01-13T01:27:05;-12695.97;;;-146.10;100.00
12763;BME280;6445;52.490;13.378;2023-01-13T01:29:31;-12695.97;;;-146.10;100.00
12763;BME280;6445;52.490;13.378;2023-01-13T01:31:56;-12695.97;;;-146.10;100.00
12763;BME280;6445;52.490;13.378;2023-01-13T01:34:22;-12695.97;;;-146.10;100.00
12763;BME280;6445;52.490;13.378;2023-01-13T01:36:48;-12695.97;;;-146.10;100.00
12763;BME280;6445;52.490;13.378;2023-01-13T01:39:13;-12695.97;;;-146.10;100.00
12763;BME280;6445;52.490;13.378;2023-01-13T01:41:38;-12695.97;;;-146.10;100.00
12763;BME280;6445;52.490;13.378;2023-01-13T01:44:07;-12695.97;;;-146.10;100.00
12763;BME280;6445;52.490;13.378;2023-01-13T01:46:52;-12695.97;;;-146.10;100.00
12763;BME280;6445;52.490;13.378;2023-01-13T01:49:34;-12695.97;;;-146.10;100.00
12763;BME280;6445;52.490;13.378;2023-01-13T01:52:03;-12695.97;;;-146.10;100.00
12763;BME280;6445;52.490;13.378;2023-01-13T01:54:41;-12695.97;;;-146.10;100.00
12763;BME280;6445;52.490;13.378;2023-01-13T01:57:10;-12694.50;;;-146.10;100.00
12763;BME280;6445;52.490;13.378;2023-01-13T01:59:39;-12694.50;;;-146.10;100.00
12763;BME280;6445;52.490;13.378;2023-01-13T02:02:05;-12694.50;;;-146.10;100.00
12763;BME280;6445;52.490;13.378;2023-01-13T02:04:40;-12694.50;;;-146.10;100.00
12763;BME280;6445;52.490;13.378;2023-01-13T02:07:16;-12442.63;;;-146.10;100.00
12763;BME280;6445;52.490;13.378;2023-01-13T02:09:42;-12190.78;;;-146.10;100.00
12763;BME280;6445;52.490;13.378;2023-01-13T02:12:07;-12190.78;;;-146.10;100.00
12763;BME280;6445;52.490;13.378;2023-01-13T02:14:51;-11938.88;;;-146.10;100.00
12763;BME280;6445;52.490;13.378;2023-01-13T02:20:31;-11687.00;;;-146.10;100.00
12763;BME280;6445;52.490;13.378;2023-01-13T02:26:24;-11687.00;;;-146.10;100.00
12763;BME280;6445;52.490;13.378;2023-01-13T02:31:47;-11435.06;;;-146.10;100.00
12763;BME280;6445;52.490;13.378;2023-01-13T02:34:24;-11435.06;;;-146.10;100.00
12763;BME280;6445;52.490;13.378;2023-01-13T02:37:00;-11687.00;;;-146.10;100.00
12763;BME280;6445;52.490;13.378;2023-01-13T02:39:32;-11938.88;;;-146.10;100.00
12763;BME280;6445;52.490;13.378;2023-01-13T02:42:05;-11687.00;;;-146.10;100.00
12763;BME280;6445;52.490;13.378;2023-01-13T02:44:56;-11435.06;;;-146.10;100.00
12763;BME280;6445;52.490;13.378;2023-01-13T02:47:27;-11435.06;;;-146.10;100.00
12763;BME280;6445;52.490;13.378;2023-01-13T02:50:01;-11435.06;;;-146.10;100.00
12763;BME280;6445;52.490;13.378;2023-01-13T02:52:37;-11183.13;;;-146.10;100.00
12763;BME280;6445;52.490;13.378;2023-01-13T02:55:07;-11183.13;;;-146.10;100.00
12763;BME280;6445;52.490;13.378;2023-01-13T02:57:35;-11183.13;;;-146.10;100.00
12763;BME280;6445;52.490;13.378;2023-01-13T03:00:03;-10931.19;;;-146.10;100.00
12763;BME280;6445;52.490;13.378;2023-01-13T03:02:30;-10679.22;;;-146.10;100.00
12763;BME280;6445;52.490;13.378;2023-01-13T03:04:58;-10427.25;;;-146.10;100.00
12763;BME280;6445;52.490;13.378;2023-01-13T03:07:33;-10175.25;;;-146.10;100.00
12763;BME280;6445;52.490;13.378;2023-01-13T03:13:07;-9923.22;;;-146.10;100.00
12763;BME280;6445;52.490;13.378;2023-01-13T03:18:34;-9419.13;;;-146.10;100.00
12763;BME280;6445;52.490;13.378;2023-01-13T03:21:14;-8915.00;;;-146.10;100.00
12763;BME280;6445;52.490;13.378;2023-01-13T03:23:53;-8158.66;;;-146.10;100.00
12763;BME280;6445;52.490;13.378;2023-01-13T03:29:11;-6897.75;;;-146.10;100.00
12763;BME280;6445;52.490;13.378;2023-01-13T03:31:44;-6141.00;;;-146.10;100.00
12763;BME280;6445;52.490;13.378;2023-01-13T03:34:13;-5636.41;;;-146.10;100.00
12763;BME280;6445;52.490;13.378;2023-01-13T03:36:42;-5384.09;;;-146.10;100.00
12763;BME280;6445;52.490;13.378;2023-01-13T03:39:11;-5131.78;;;-146.10;100.00
12763;BME280;6445;52.490;13.378;2023-01-13T03:41:44;-4374.69;;;-146.10;100.00
12763;BME280;6445;52.490;13.378;2023-01-13T03:44:28;-5090.38;;;-146.10;100.00
12763;BME280;6445;52.490;13.378;2023-01-13T03:47:21;-5855.19;;;-146.10;100.00
12763;BME280;6445;52.490;13.378;2023-01-13T03:50:28;-6141.00;;;-146.10;100.00
12763;BME280;6445;52.490;13.378;2023-01-13T03:52:55;-5636.41;;;-146.10;100.00
12763;BME280;6445;52.490;13.378;2023-01-13T03:55:27;-6393.25;;;-146.10;100.00
12763;BME280;6445;52.490;13.378;2023-01-13T03:58:10;-5888.72;;;-146.10;100.00
12763;BME280;6445;52.490;13.378;2023-01-13T04:00:46;-6393.25;;;-146.10;100.00
12763;BME280;6445;52.490;13.378;2023-01-13T04:03:21;-6897.75;;;-146.10;100.00
12763;BME280;6445;52.490;13.378;2023-01-13T04:05:51;-6645.50;;;-146.10;100.00
12763;BME280;6445;52.490;13.378;2023-01-13T04:08:21;-5888.72;;;-146.10;100.00
12763;BME280;6445;52.490;13.378;2023-01-13T04:13:29;-5131.78;;;-146.10;100.00
12763;BME280;6445;52.490;13.378;2023-01-13T04:15:56;-5131.78;;;-146.10;100.00
12763;BME280;6445;52.490;13.378;2023-01-13T04:18:26;-5384.09;;;-146.10;100.00
12763;BME280;6445;52.490;13.378;2023-01-13T04:20:53;-5888.72;;;-146.10;100.00
12763;BME280;6445;52.490;13.378;2023-01-13T04:23:20;-5384.09;;;-146.10;100.00
12763;BME280;6445;52.490;13.378;2023-01-13T04:25:47;-5131.78;;;-146.10;100.00
12763;BME280;6445;52.490;13.378;2023-01-13T04:28:13;-4879.41;;;-146.10;100.00
12763;BME280;6445;52.490;13.378;2023-01-13T04:30:39;-4627.06;;;-146.10;100.00
12763;BME280;6445;52.490;13.378;2023-01-13T04:33:05;-4122.28;;;-146.10;100.00
12763;BME280;6445;52.490;13.378;2023-01-13T04:35:31;-4374.69;;;-146.10;100.00
12763;BME280;6445;52.490;13.378;2023-01-13T04:38:00;-4879.41;;;-146.10;100.00
12763;BME280;6445;52.490;13.378;2023-01-13T04:40:25;-4879.41;;;-146.10;100.00
12763;BME280;6445;52.490;13.378;2023-01-13T04:42:50;-5131.78;;;-146.10;100.00
12763;BME280;6445;52.490;13.378;2023-01-13T04:45:16;-4879.41;;;-146.10;100.00
12763;BME280;6445;52.490;13.378;2023-01-13T04:47:41;-4879.41;;;-146.10;100.00
12763;BME280;6445;52.490;13.378;2023-01-13T04:50:08;-5131.78;;;-146.10;100.00
12763;BME280;6445;52.490;13.378;2023-01-13T04:52:34;-5384.09;;;-146.10;100.00
12763;BME280;6445;52.490;13.378;2023-01-13T04:54:59;-5384.09;;;-146.10;100.00
12763;BME280;6445;52.490;13.378;2023-01-13T04:57:24;-5384.09;;;-146.10;100.00
12763;BME280;6445;52.490;13.378;2023-01-13T04:59:50;-5636.41;;;-146.10;100.00
12763;BME280;6445;52.490;13.378;2023-01-13T05:02:15;-5384.09;;;-146.10;100.00
12763;BME280;6445;52.490;13.378;2023-01-13T05:04:44;-4879.41;;;-146.10;100.00
12763;BME280;6445;52.490;13.378;2023-01-13T05:07:10;-4627.06;;;-146.10;100.00
12763;BME280;6445;52.490;13.378;2023-01-13T05:09:35;-4374.69;;;-146.10;100.00
12763;BME280;6445;52.490;13.378;2023-01-13T05:12:00;-3617.44;;;-146.10;100.00
12763;BME280;6445;52.490;13.378;2023-01-13T05:14:44;-3112.53;;;-146.10;100.00
12763;BME280;6445;52.490;13.378;2023-01-13T05:17:30;-2355.03;;;-146.10;100.00
12763;BME280;6445;52.490;13.378;2023-01-13T05:19:55;-2607.53;;;-146.10;100.00
12763;BME280;6445;52.490;13.378;2023-01-13T05:22:21;-4593.53;;;-146.10;100.00
12763;BME280;6445;52.490;13.378;2023-01-13T05:25:07;-7167.69;;;-146.10;100.00
12763;BME280;6445;52.490;13.378;2023-01-13T05:27:45;-9167.06;;;-146.10;100.00
12763;BME280;6445;52.490;13.378;2023-01-13T05:30:11;-10175.25;;;-146.10;100.00
12763;BME280;6445;52.490;13.378;2023-01-13T05:32:36;-10931.19;;;-146.10;100.00
12763;BME280;6445;52.490;13.378;2023-01-13T05:35:02;-10931.19;;;-146.10;100.00
12763;BME280;6445;52.490;13.378;2023-01-13T05:37:27;-10931.19;;;-146.10;100.00
12763;BME280;6445;52.490;13.378;2023-01-13T05:39:53;-10679.22;;;-146.10;100.00
12763;BME280;6445;52.490;13.378;2023-01-13T05:42:37;-10175.25;;;-146.10;100.00
12763;BME280;6445;52.490;13.378;2023-01-13T05:45:22;-9671.19;;;-146.10;100.00
12763;BME280;6445;52.490;13.378;2023-01-13T05:47:47;-9419.13;;;-146.10;100.00
12763;BME280;6445;52.490;13.378;2023-01-13T05:50:12;-9419.13;;;-146.10;100.00
12763;BME280;6445;52.490;13.378;2023-01-13T05:52:37;-9671.19;;;-146.10;100.00
12763;BME280;6445;52.490;13.378;2023-01-13T05:55:03;-8915.00;;;-146.10;100.00
12763;BME280;6445;52.490;13.378;2023-01-13T05:57:28;-8158.66;;;-146.10;100.00
12763;BME280;6445;52.490;13.378;2023-01-13T05:59:54;-7906.50;;;-146.10;100.00
12763;BME280;6445;52.490;13.378;2023-01-13T06:02:19;-7149.94;;;-146.10;100.00
12763;BME280;6445;52.490;13.378;2023-01-13T06:04:44;-6645.50;;;-146.10;100.00
12763;BME280;6445;52.490;13.378;2023-01-13T06:07:09;-6645.50;;;-146.10;100.00
12763;BME280;6445;52.490;13.378;2023-01-13T06:09:35;-6393.25;;;-146.10;100.00
12763;BME280;6445;52.490;13.378;2023-01-13T06:12:00;-6141.00;;;-146.10;100.00
12763;BME280;6445;52.490;13.378;2023-01-13T06:14:26;-5636.41;;;-146.10;100.00
12763;BME280;6445;52.490;13.378;2023-01-13T06:17:05;-4879.41;;;-146.10;100.00
12763;BME280;6445;52.490;13.378;2023-01-13T06:19:30;-5888.72;;;-146.10;100.00
12763;BME280;6445;52.490;13.378;2023-01-13T06:21:56;-5636.41;;;-146.10;100.00
12763;BME280;6445;52.490;13.378;2023-01-13T06:24:21;-5131.78;;;-146.10;100.00
12763;BME280;6445;52.490;13.378;2023-01-13T06:26:47;-5384.09;;;-146.10;100.00
12763;BME280;6445;52.490;13.378;2023-01-13T06:29:12;-5384.09;;;-146.10;100.00
12763;BME280;6445;52.490;13.378;2023-01-13T06:31:39;-4879.41;;;-146.10;100.00
12763;BME280;6445;52.490;13.378;2023-01-13T06:34:08;-4627.06;;;-146.10;100.00
12763;BME280;6445;52.490;13.378;2023-01-13T06:36:40;-5131.78;;;-146.10;100.00
12763;BME280;6445;52.490;13.378;2023-01-13T06:39:07;-4374.69;;;-146.10;100.00
12763;BME280;6445;52.490;13.378;2023-01-13T06:41:33;-3112.53;;;-146.10;100.00
12763;BME280;6445;52.490;13.378;2023-01-13T06:44:18;-2607.53;;;-146.10;100.00
12763;BME280;6445;52.490;13.378;2023-01-13T06:46:44;-1849.97;;;-146.10;100.00
12763;BME280;6445;52.490;13.378;2023-01-13T06:49:09;-3258.47;;;-146.10;100.00
12763;BME280;6445;52.490;13.378;2023-01-13T06:51:35;-4735.50;;;-146.10;100.00
12763;BME280;6445;52.490;13.378;2023-01-13T06:54:00;-6257.28;;;-146.10;100.00
12763;BME280;6445;52.490;13.378;2023-01-13T06:56:25;-7906.50;;;-146.10;100.00
12763;BME280;6445;52.490;13.378;2023-01-13T06:58:50;-8915.00;;;-146.10;100.00
12763;BME280;6445;52.490;13.378;2023-01-13T07:01:16;-9419.13;;;-146.10;100.00
12763;BME280;6445;52.490;13.378;2023-01-13T07:03:41;-10175.25;;;-146.10;100.00
12763;BME280;6445;52.490;13.378;2023-01-13T07:06:06;-10679.22;;;-146.10;100.00
12763;BME280;6445;52.490;13.378;2023-01-13T07:08:32;-10931.19;;;-146.10;100.00
12763;BME280;6445;52.490;13.378;2023-01-13T07:10:57;-10931.19;;;-146.10;100.00
12763;BME280;6445;52.490;13.378;2023-01-13T07:13:22;-10427.25;;;-146.10;100.00
12763;BME280;6445;52.490;13.378;2023-01-13T07:16:07;-9167.06;;;-146.10;100.00
12763;BME280;6445;52.490;13.378;2023-01-13T07:18:33;-8158.66;;;-146.10;100.00
12763;BME280;6445;52.490;13.378;2023-01-13T07:21:01;-7402.16;;;-146.10;100.00
12763;BME280;6445;52.490;13.378;2023-01-13T07:23:28;-6897.75;;;-146.10;100.00
12763;BME280;6445;52.490;13.378;2023-01-13T07:25:55;-5131.78;;;-146.10;100.00
12763;BME280;6445;52.490;13.378;2023-01-13T07:28:20;-4374.69;;;-146.10;100.00
12763;BME280;6445;52.490;13.378;2023-01-13T07:30:46;-3112.53;;;-146.10;100.00
12763;BME280;6445;52.490;13.378;2023-01-13T07:33:11;-2355.03;;;-146.10;100.00
12763;BME280;6445;52.490;13.378;2023-01-13T07:35:36;-586.97;;;-146.10;100.00
12763;BME280;6445;52.490;13.378;2023-01-13T07:38:02;1687.44;;;-146.10;100.00
12763;BME280;6445;52.490;13.378;2023-01-13T07:40:27;3710.25;;;-146.10;100.00
12763;BME280;6445;52.490;13.378;2023-01-13T07:42:52;4975.06;;;-146.10;100.00
12763;BME280;6445;52.490;13.378;2023-01-13T07:45:36;6493.38;;;-146.10;100.00
12763;BME280;6445;52.490;13.378;2023-01-13T07:48:01;7759.09;;;-146.10;100.00
12763;BME280;6445;52.490;13.378;2023-01-13T07:50:27;9531.78;;;-146.10;100.00
12763;BME280;6445;52.490;13.378;2023-01-13T07:52:56;13840.28;;;-146.10;100.00
12763;BME280;6445;52.490;13.378;2023-01-13T07:55:21;17899.72;;;-146.10;100.00
12763;BME280;6445;52.490;13.378;2023-01-13T07:57:47;21455.19;;;-146.10;100.00
12763;BME280;6445;52.490;13.378;2023-01-13T08:00:13;26031.31;;;-146.10;100.00
12763;BME280;6445;52.490;13.378;2023-01-13T08:02:38;29339.59;;;-146.10;100.00
12763;BME280;6445;52.490;13.378;2023-01-13T08:05:04;34434.78;;;-146.10;100.00
12763;BME280;6445;52.490;13.378;2023-01-13T08:07:29;37056.59;;;-146.10;100.00
12763;BME280;6445;52.490;13.378;2023-01-13T08:09:54;40304.41;;;-146.10;100.00
12763;BME280;6445;52.490;13.378;2023-01-13T08:12:19;44453.31;;;-146.10;100.00
12763;BME280;6445;52.490;13.378;2023-01-13T08:15:04;47587.34;;;-146.10;100.00
12763;BME280;6445;52.490;13.378;2023-01-13T08:17:29;49798.03;;;-146.10;100.00
12763;BME280;6445;52.490;13.378;2023-01-13T08:19:55;51747.91;;;-146.10;100.00
12763;BME280;6445;52.490;13.378;2023-01-13T08:22:20;53278.50;;;-146.10;100.00
12763;BME280;6445;52.490;13.378;2023-01-13T08:24:46;54813.66;;;-146.10;100.00
12763;BME280;6445;52.490;13.378;2023-01-13T08:27:12;56846.13;;;-146.10;100.00
12763;BME280;6445;52.490;13.378;2023-01-13T08:29:37;59296.47;;;-146.10;100.00
12763;BME280;6445;52.490;13.378;2023-01-13T08:32:02;60016.06;;;-146.10;100.00
12763;BME280;6445;52.490;13.378;2023-01-13T08:34:27;62524.53;;;-146.10;100.00
12763;BME280;6445;52.490;13.378;2023-01-13T08:36:53;63872.66;;;-146.10;100.00
12763;BME280;6445;52.490;13.378;2023-01-13T08:39:18;63966.97;;;-146.10;100.00
12763;BME280;6445;52.490;13.378;2023-01-13T08:41:43;64296.03;;;-146.10;100.00
12763;BME280;6445;52.490;13.378;2023-01-13T08:44:25;66030.22;;;-146.10;100.00
12763;BME280;6445;52.490;13.378;2023-01-13T08:46:51;67058.22;;;-146.10;100.00
12763;BME280;6445;52.490;13.378;2023-01-13T08:49:17;65321.59;;;-146.10;100.00
12763;BME280;6445;52.490;13.378;2023-01-13T08:51:43;65526.34;;;-146.10;100.00
12763;BME280;6445;52.490;13.378;2023-01-13T08:54:08;68148.78;;;-146.10;100.00
12763;BME280;6445;52.490;13.378;2023-01-13T08:56:34;67799.28;;;-146.10;100.00
12763;BME280;6445;52.490;13.378;2023-01-13T08:58:59;67554.25;;;-146.10;100.00
12763;BME280;6445;52.490;13.378;2023-01-13T09:01:25;65405.91;;;-146.10;100.00
12763;BME280;6445;52.490;13.378;2023-01-13T09:03:51;65893.69;;;-146.10;100.00
12763;BME280;6445;52.490;13.378;2023-01-13T09:06:16;62793.31;;;-146.10;100.00
12763;BME280;6445;52.490;13.378;2023-01-13T09:08:42;61784.44;;;-146.10;100.00
12763;BME280;6445;52.490;13.378;2023-01-13T09:11:15;61411.47;;;-146.10;100.00
12763;BME280;6445;52.490;13.378;2023-01-13T09:14:00;58046.06;;;-146.10;100.00
12763;BME280;6445;52.490;13.378;2023-01-13T09:16:25;60799.91;;;-146.10;100.00
12763;BME280;6445;52.490;13.378;2023-01-13T09:18:50;64183.66;;;-146.10;100.00
12763;BME280;6445;52.490;13.378;2023-01-13T09:21:16;63814.47;;;-146.10;100.00
12763;BME280;6445;52.490;13.378;2023-01-13T09:23:43;64599.06;;;-146.10;100.00
12763;BME280;6445;52.490;13.378;2023-01-13T09:26:09;66777.09;;;-146.10;100.00
12763;BME280;6445;52.490;13.378;2023-01-13T09:28:35;68867.94;;;-146.10;100.00
12763;BME280;6445;52.490;13.378;2023-01-13T09:31:00;65925.81;;;-146.10;100.00
12763;BME280;6445;52.490;13.378;2023-01-13T09:33:25;65090.78;;;-146.10;100.00
12763;BME280;6445;52.490;13.378;2023-01-13T09:36:09;66678.72;;;-146.10;100.00
12763;BME280;6445;52.490;13.378;2023-01-13T09:38:35;61589.94;;;-146.10;100.00
12763;BME280;6445;52.490;13.378;2023-01-13T09:41:00;52832.25;;;-146.10;100.00
12763;BME280;6445;52.490;13.378;2023-01-13T09:43:30;52794.25;;;-146.10;100.00
12763;BME280;6445;52.490;13.378;2023-01-13T09:46:20;58316.56;;;-146.10;100.00
12763;BME280;6445;52.490;13.378;2023-01-13T09:49:09;64661.28;;;-146.10;100.00
12763;BME280;6445;52.490;13.378;2023-01-13T09:51:43;69044.72;;;-146.10;100.00
12763;BME280;6445;52.490;13.378;2023-01-13T09:57:00;71581.00;;;-146.10;100.00
12763;BME280;6445;52.490;13.378;2023-01-13T09:59:28;65644.78;;;-146.10;100.00
12763;BME280;6445;52.490;13.378;2023-01-13T10:04:31;54917.75;;;-146.10;99.12
12763;BME280;6445;52.490;13.378;2023-01-13T10:07:02;61178.84;;;-146.10;100.00
12763;BME280;6445;52.490;13.378;2023-01-13T10:09:50;68327.53;;;-146.10;100.00
12763;BME280;6445;52.490;13.378;2023-01-13T10:12:19;70298.59;;;-146.10;100.00
12763;BME280;6445;52.490;13.378;2023-01-13T10:15:05;70378.97;;;-146.10;100.00
12763;BME280;6445;52.490;13.378;2023-01-13T10:17:45;70025.28;;;-146.10;100.00
12763;BME280;6445;52.490;13.378;2023-01-13T10:26:02;54429.31;;;-146.10;93.93
12763;BME280;6445;52.490;13.378;2023-01-13T10:28:30;58565.03;;;-146.10;99.72
12763;BME280;6445;52.490;13.378;2023-01-13T10:30:55;62021.09;;;-146.10;100.00
12763;BME280;6445;52.490;13.378;2023-01-13T10:33:29;68327.53;;;-146.10;100.00
12763;BME280;6445;52.490;13.378;2023-01-13T10:36:02;69555.06;;;-146.10;100.00
12763;BME280;6445;52.490;13.378;2023-01-13T10:41:05;71617.19;;;-146.10;100.00
12763;BME280;6445;52.490;13.378;2023-01-13T10:43:31;73308.28;;;-146.10;100.00
12763;BME280;6445;52.490;13.378;2023-01-13T10:45:59;72745.19;;;-146.10;100.00
12763;BME280;6445;52.490;13.378;2023-01-13T10:48:40;73883.53;;;-146.10;100.00
12763;BME280;6445;52.490;13.378;2023-01-13T10:54:00;71371.94;;;-146.10;100.00
12763;BME280;6445;52.490;13.378;2023-01-13T10:56:29;72314.84;;;-146.10;100.00
12763;BME280;6445;52.490;13.378;2023-01-13T11:01:41;70561.88;;;-146.10;100.00
12763;BME280;6445;52.490;13.378;2023-01-13T11:04:28;68496.28;;;-146.10;100.00
12763;BME280;6445;52.490;13.378;2023-01-13T11:06:54;69693.72;;;-146.10;100.00
12763;BME280;6445;52.490;13.378;2023-01-13T11:09:20;67026.09;;;-146.10;100.00
12763;BME280;6445;52.490;13.378;2023-01-13T11:11:47;66642.56;;;-146.10;100.00
12763;BME280;6445;52.490;13.378;2023-01-13T11:14:22;62263.78;;;-146.10;100.00
12763;BME280;6445;52.490;13.378;2023-01-13T11:17:15;55902.84;;;-146.10;93.14
12763;BME280;6445;52.490;13.378;2023-01-13T11:19:51;52622.16;;;-146.10;83.92
12763;BME280;6445;52.490;13.378;2023-01-13T11:22:28;51985.97;;;-146.10;75.87
12763;BME280;6445;52.490;13.378;2023-01-13T11:24:58;51891.94;;;-146.10;67.67
12763;BME280;6445;52.490;13.378;2023-01-13T11:35:47;52005.97;;;-146.10;67.78
12763;BME280;6445;52.490;13.378;2023-01-13T11:38:26;52019.97;;;-146.10;65.09
12763;BME280;6445;52.490;13.378;2023-01-13T11:41:00;51995.97;;;-146.10;64.95
12763;BME280;6445;52.490;13.378;2023-01-13T11:44:30;51993.97;;;-146.10;63.38
12763;BME280;6445;52.490;13.378;2023-01-13T11:46:25;52003.97;;;-146.10;63.15
12763;BME280;6445;52.490;13.378;2023-01-13T11:48:51;52007.97;;;-146.10;64.91
12763;BME280;6445;52.490;13.378;2023-01-13T11:51:39;52019.97;;;-146.10;64.10
12763;BME280;6445;52.490;13.378;2023-01-13T11:54:26;52021.97;;;-146.10;62.99
12763;BME280;6445;52.490;13.378;2023-01-13T11:57:15;52009.97;;;-146.10;63.54
12763;BME280;6445;52.490;13.378;2023-01-13T12:00:15;52029.97;;;-146.10;64.21
12763;BME280;6445;52.490;13.378;2023-01-13T12:02:51;52007.97;;;-146.10;65.87
12763;BME280;6445;52.490;13.378;2023-01-13T12:05:25;52035.97;;;-146.10;64.46
12763;BME280;6445;52.490;13.378;2023-01-13T12:08:09;52013.97;;;-146.10;64.41
12763;BME280;6445;52.490;13.378;2023-01-13T12:14:24;52005.97;;;-146.10;64.70
12763;BME280;6445;52.490;13.378;2023-01-13T12:16:47;51997.97;;;-146.10;65.57
12763;BME280;6445;52.490;13.378;2023-01-13T12:19:29;51999.97;;;-146.10;65.27
12763;BME280;6445;52.490;13.378;2023-01-13T12:22:05;52007.97;;;-146.10;66.01
12763;BME280;6445;52.490;13.378;2023-01-13T12:24:42;52001.97;;;-146.10;64.45
12763;BME280;6445;52.490;13.378;2023-01-13T12:27:25;52015.97;;;-146.10;64.62
12763;BME280;6445;52.490;13.378;2023-01-13T12:29:56;52009.97;;;-146.10;61.92
12763;BME280;6445;52.490;13.378;2023-01-13T12:32:35;52011.97;;;-146.10;62.67
12763;BME280;6445;52.490;13.378;2023-01-13T12:35:18;51965.97;;;-146.10;61.78
12763;BME280;6445;52.490;13.378;2023-01-13T12:40:58;52031.97;;;-146.10;57.23
12763;BME280;6445;52.490;13.378;2023-01-13T12:43:25;52015.97;;;-146.10;59.36
12763;BME280;6445;52.490;13.378;2023-01-13T12:51:22;52047.97;;;-146.10;51.85
12763;BME280;6445;52.490;13.378;2023-01-13T12:53:47;52011.97;;;-146.10;54.46
12763;BME280;6445;52.490;13.378;2023-01-13T13:01:40;51979.97;;;-146.10;58.03
12763;BME280;6445;52.490;13.378;2023-01-13T13:06:35;51973.97;;;-146.10;62.17
12763;BME280;6445;52.490;13.378;2023-01-13T13:09:04;51965.97;;;-146.10;62.94
12763;BME280;6445;52.490;13.378;2023-01-13T13:11:40;51999.97;;;-146.10;62.67
12763;BME280;6445;52.490;13.378;2023-01-13T13:19:57;51975.97;;;-146.10;62.09
12763;BME280;6445;52.490;13.378;2023-01-13T13:27:38;51987.97;;;-146.10;64.12
12763;BME280;6445;52.490;13.378;2023-01-13T13:30:59;51985.97;;;-146.10;63.47
12763;BME280;6445;52.490;13.378;2023-01-13T13:36:17;51977.97;;;-146.10;62.11
12763;BME280;6445;52.490;13.378;2023-01-13T13:39:14;51965.97;;;-146.10;64.10
12763;BME280;6445;52.490;13.378;2023-01-13T13:42:26;51959.97;;;-146.10;65.39
12763;BME280;6445;52.490;13.378;2023-01-13T13:45:23;51973.97;;;-146.10;64.66
12763;BME280;6445;52.490;13.378;2023-01-13T13:48:24;51977.97;;;-146.10;64.95
12763;BME280;6445;52.490;13.378;2023-01-13T13:50:53;51981.97;;;-146.10;65.71
12763;BME280;6445;52.490;13.378;2023-01-13T13:53:28;51983.97;;;-146.10;66.79
12763;BME280;6445;52.490;13.378;2023-01-13T13:55:59;51981.97;;;-146.10;67.24
12763;BME280;6445;52.490;13.378;2023-01-13T13:58:27;51981.97;;;-146.10;66.61
12763;BME280;6445;52.490;13.378;2023-01-13T14:00:55;51989.97;;;-146.10;66.53
12763;BME280;6445;52.490;13.378;2023-01-13T14:03:29;51991.97;;;-146.10;67.62
12763;BME280;6445;52.490;13.378;2023-01-13T14:05:56;51969.97;;;-146.10;67.74
12763;BME280;6445;52.490;13.378;2023-01-13T14:08:23;51953.97;;;-146.10;68.73
12763;BME280;6445;52.490;13.378;2023-01-13T14:10:49;51981.97;;;-146.10;69.09
12763;BME280;6445;52.490;13.378;2023-01-13T14:16:01;51967.97;;;-146.10;68.62